Time;durP1;ratioP1;P1;durP2;ratioP2;P2;SDS_P1;SDS_P2;PMS_P1;PMS_P2;Temp;Humidity;BMP_temperature;BMP_pressure;BME280_temperature;BME280_humidity;BME280_pressure;Samples;Min_cycle;Max_cycle;Signal;HPM_P1;HPM_P2
2021/04/10 00:02:16;;;;;;;0.65;0.60;;;;;;;;;;5091162;28;20090;-32
2021/04/10 00:04:42;;;;;;;0.98;0.70;;;;;;;;;;5091186;28;20044;-31
2021/04/10 00:07:09;;;;;;;0.88;0.70;;;;;;;;;;5090591;28;20087;-31
2021/04/10 00:09:35;;;;;;;1.05;0.85;;;;;;;;;;5091091;28;20078;-31
2021/04/10 00:12:01;;;;;;;1.58;0.52;;;;;;;;;;5093525;28;20084;-32
2021/04/10 00:14:27;;;;;;;1.30;1.00;;;;;;;;;;5095122;28;20044;-30
2021/04/10 00:16:53;;;;;;;0.82;0.80;;;;;;;;;;5094249;28;20048;-30
2021/04/10 00:19:19;;;;;;;1.55;1.00;;;;;;;;;;5094954;28;20471;-31
2021/04/10 00:21:45;;;;;;;1.60;0.82;;;;;;;;;;5094761;28;20091;-31
2021/04/10 00:24:12;;;;;;;1.50;0.77;;;;;;;;;;5094917;28;20091;-32
2021/04/10 00:26:38;;;;;;;1.42;0.90;;;;;;;;;;5094650;28;20052;-31
2021/04/10 00:29:04;;;;;;;1.10;0.95;;;;;;;;;;5094630;28;20044;-31
2021/04/10 00:31:30;;;;;;;0.82;0.80;;;;;;;;;;5094875;28;20087;-31
2021/04/10 00:33:56;;;;;;;0.70;0.63;;;;;;;;;;5094674;28;20058;-32
2021/04/10 00:36:22;;;;;;;0.68;0.68;;;;;;;;;;5094189;28;20040;-33
2021/04/10 00:38:48;;;;;;;1.52;0.90;;;;;;;;;;5094747;28;20079;-32
2021/04/10 00:41:19;;;;;;;1.13;0.80;;;;;;;;;;5094371;28;20422;-31
2021/04/10 00:43:45;;;;;;;1.30;0.90;;;;;;;;;;5094606;28;20490;-31
2021/04/10 00:46:11;;;;;;;1.40;0.60;;;;;;;;;;5093593;28;20084;-31
2021/04/10 00:48:37;;;;;;;0.73;0.70;;;;;;;;;;5094434;28;20051;-32
2021/04/10 00:51:03;;;;;;;1.10;0.98;;;;;;;;;;5094218;28;20076;-34
2021/04/10 00:53:30;;;;;;;1.58;0.88;;;;;;;;;;5076310;28;20487;-31
2021/04/10 00:55:59;;;;;;;1.83;0.90;;;;;;;;;;5075777;28;20481;-31
2021/04/10 00:58:26;;;;;;;0.70;0.60;;;;;;;;;;5076486;28;20046;-31
2021/04/10 01:00:52;;;;;;;1.05;0.80;;;;;;;;;;5093966;28;20075;-31
2021/04/10 01:03:18;;;;;;;0.70;0.70;;;;;;;;;;5059488;28;20052;-31
2021/04/10 01:05:44;;;;;;;1.80;0.60;;;;;;;;;;5075263;28;20078;-31
2021/04/10 01:08:10;;;;;;;1.30;1.13;;;;;;;;;;5094153;28;20044;-31
2021/04/10 01:10:36;;;;;;;1.80;0.63;;;;;;;;;;5094061;28;20055;-31
2021/04/10 01:13:22;;;;;;;2.88;0.80;;;;;;;;;;5059205;28;20048;-31
2021/04/10 01:16:13;;;;;;;1.35;0.65;;;;;;;;;;5092997;28;20089;-32
2021/04/10 01:18:57;;;;;;;0.68;0.68;;;;;;;;;;5093835;28;20537;-30
2021/04/10 01:21:41;;;;;;;1.50;1.10;;;;;;;;;;5093746;28;20080;-34
2021/04/10 01:24:31;;;;;;;0.80;0.80;;;;;;;;;;5059110;28;20051;-32
2021/04/10 01:27:00;;;;;;;1.15;0.63;;;;;;;;;;5093004;28;20079;-30
2021/04/10 01:29:26;;;;;;;0.50;0.50;;;;;;;;;;5093614;28;20056;-33
2021/04/10 01:31:53;;;;;;;0.55;0.50;;;;;;;;;;5058609;28;20182;-32
2021/04/10 01:34:30;;;;;;;0.50;0.50;;;;;;;;;;5093662;28;20126;-31
2021/04/10 01:37:05;;;;;;;0.80;0.70;;;;;;;;;;5059012;28;20095;-31
2021/04/10 01:39:32;;;;;;;0.55;0.55;;;;;;;;;;5075491;28;20533;-30
2021/04/10 01:41:58;;;;;;;0.90;0.70;;;;;;;;;;5058554;28;20087;-31
2021/04/10 01:44:24;;;;;;;1.15;0.70;;;;;;;;;;5093329;28;20087;-33
2021/04/10 01:46:50;;;;;;;0.80;0.80;;;;;;;;;;5057814;28;20087;-34
2021/04/10 01:49:16;;;;;;;0.55;0.52;;;;;;;;;;5075426;28;20080;-31
2021/04/10 01:51:42;;;;;;;0.82;0.63;;;;;;;;;;5074792;28;20524;-31
2021/04/10 01:54:08;;;;;;;0.98;0.70;;;;;;;;;;5093110;28;20411;-32
2021/04/10 01:56:36;;;;;;;0.50;0.50;;;;;;;;;;5091258;28;20084;-31
2021/04/10 01:59:03;;;;;;;0.73;0.50;;;;;;;;;;5091791;28;20080;-31
2021/04/10 02:01:29;;;;;;;1.05;0.70;;;;;;;;;;5075232;28;20503;-32
2021/04/10 02:03:55;;;;;;;0.68;0.50;;;;;;;;;;5074959;28;20082;-30
2021/04/10 02:06:21;;;;;;;1.00;0.70;;;;;;;;;;5074250;28;20071;-30
2021/04/10 02:08:47;;;;;;;1.00;0.57;;;;;;;;;;5091403;28;20097;-29
2021/04/10 02:11:14;;;;;;;1.92;0.60;;;;;;;;;;5078573;28;20076;-32
2021/04/10 02:13:40;;;;;;;1.20;0.70;;;;;;;;;;5058314;28;20087;-31
2021/04/10 02:16:06;;;;;;;0.93;0.80;;;;;;;;;;5074013;28;20055;-31
2021/04/10 02:18:36;;;;;;;1.02;0.50;;;;;;;;;;5092835;28;20083;-31
2021/04/10 02:21:07;;;;;;;0.75;0.63;;;;;;;;;;5092755;28;20080;-32
2021/04/10 02:23:34;;;;;;;0.60;0.50;;;;;;;;;;5092625;28;20091;-32
2021/04/10 02:26:01;;;;;;;1.05;0.60;;;;;;;;;;5073691;28;20062;-32
2021/04/10 02:28:27;;;;;;;0.88;0.80;;;;;;;;;;5092528;28;20078;-32
2021/04/10 02:30:54;;;;;;;0.75;0.57;;;;;;;;;;5092442;28;20048;-32
2021/04/10 02:33:25;;;;;;;0.52;0.52;;;;;;;;;;5074871;28;20040;-30
2021/04/10 02:35:52;;;;;;;0.98;0.50;;;;;;;;;;5074064;28;20568;-31
2021/04/10 02:38:19;;;;;;;1.05;0.70;;;;;;;;;;5074495;28;20056;-31
2021/04/10 02:40:49;;;;;;;0.50;0.50;;;;;;;;;;5091058;28;20502;-30
2021/04/10 02:43:19;;;;;;;1.35;0.90;;;;;;;;;;5091065;28;20056;-29
2021/04/10 02:45:45;;;;;;;1.17;0.70;;;;;;;;;;5090260;28;20083;-30
2021/04/10 02:48:15;;;;;;;0.50;0.50;;;;;;;;;;5055529;22;20075;-30
2021/04/10 02:50:41;;;;;;;0.68;0.60;;;;;;;;;;5018202;28;20072;-31
2021/04/10 02:53:07;;;;;;;0.60;0.60;;;;;;;;;;5017746;28;20053;-29
2021/04/10 02:55:36;;;;;;;0.80;0.73;;;;;;;;;;5016932;28;20041;-29
2021/04/10 02:58:04;;;;;;;0.50;0.50;;;;;;;;;;5029293;28;20053;-30
2021/04/10 03:00:30;;;;;;;0.63;0.63;;;;;;;;;;5037643;28;20078;-30
2021/04/10 03:02:57;;;;;;;0.50;0.50;;;;;;;;;;5071901;28;20048;-34
2021/04/10 03:05:23;;;;;;;0.60;0.50;;;;;;;;;;5071211;28;20041;-36
2021/04/10 03:07:49;;;;;;;0.80;0.50;;;;;;;;;;5071560;28;20053;-33
2021/04/10 03:10:16;;;;;;;0.93;0.60;;;;;;;;;;5037289;28;20052;-35
2021/04/10 03:12:43;;;;;;;0.65;0.57;;;;;;;;;;5071424;28;20052;-38
2021/04/10 03:15:15;;;;;;;0.55;0.55;;;;;;;;;;5070698;28;20129;-37
2021/04/10 03:17:41;;;;;;;0.57;0.57;;;;;;;;;;5071292;28;20102;-37
2021/04/10 03:20:13;;;;;;;4.50;1.40;;;;;;;;;;5037157;28;20467;-39
2021/04/10 03:22:48;;;;;;;0.60;0.60;;;;;;;;;;5054156;28;20098;-37
2021/04/10 03:25:16;;;;;;;0.60;0.50;;;;;;;;;;5035795;28;20049;-35
2021/04/10 03:27:42;;;;;;;0.57;0.55;;;;;;;;;;5051023;28;20081;-40
2021/04/10 03:30:10;;;;;;;0.75;0.60;;;;;;;;;;5026362;28;20122;-40
2021/04/10 03:32:37;;;;;;;0.88;0.68;;;;;;;;;;5071347;28;20098;-40
2021/04/10 03:35:04;;;;;;;0.50;0.50;;;;;;;;;;5036947;28;20052;-36
2021/04/10 03:37:30;;;;;;;0.88;0.50;;;;;;;;;;5053031;28;20324;-37
2021/04/10 03:40:01;;;;;;;1.77;1.10;;;;;;;;;;5071254;28;20125;-39
2021/04/10 03:42:36;;;;;;;0.55;0.50;;;;;;;;;;5071327;28;20056;-38
2021/04/10 03:45:05;;;;;;;0.75;0.70;;;;;;;;;;5071515;28;20141;-36
2021/04/10 03:47:51;;;;;;;0.50;0.50;;;;;;;;;;5074837;28;20052;-37
2021/04/10 03:50:17;;;;;;;0.55;0.50;;;;;;;;;;5075393;28;20076;-39
2021/04/10 03:52:44;;;;;;;0.80;0.60;;;;;;;;;;5075057;28;20052;-38
2021/04/10 03:55:11;;;;;;;0.60;0.40;;;;;;;;;;5074815;28;20102;-37
2021/04/10 03:57:37;;;;;;;0.40;0.30;;;;;;;;;;5067617;28;20098;-41
2021/04/10 04:00:04;;;;;;;0.60;0.60;;;;;;;;;;5037155;28;20085;-39
2021/04/10 04:02:30;;;;;;;0.40;0.40;;;;;;;;;;5055284;28;20554;-36
2021/04/10 04:04:57;;;;;;;0.60;0.55;;;;;;;;;;5054673;28;20044;-39
2021/04/10 04:07:23;;;;;;;0.90;0.60;;;;;;;;;;5054165;28;20050;-40
2021/04/10 04:09:49;;;;;;;0.70;0.60;;;;;;;;;;5054688;28;20488;-41
2021/04/10 04:12:15;;;;;;;0.60;0.60;;;;;;;;;;5054897;28;20107;-40
2021/04/10 04:14:41;;;;;;;0.60;0.60;;;;;;;;;;5055042;28;20114;-36
2021/04/10 04:17:07;;;;;;;0.50;0.50;;;;;;;;;;5053818;28;20053;-40
2021/04/10 04:19:33;;;;;;;0.50;0.50;;;;;;;;;;5054713;28;20124;-40
2021/04/10 04:22:00;;;;;;;0.40;0.40;;;;;;;;;;5054550;28;20470;-37
2021/04/10 04:24:26;;;;;;;0.82;0.30;;;;;;;;;;5054682;28;20049;-36
2021/04/10 04:26:52;;;;;;;0.40;0.40;;;;;;;;;;5053468;28;20071;-35
2021/04/10 04:29:19;;;;;;;0.70;0.57;;;;;;;;;;5054452;28;20073;-35
2021/04/10 04:31:45;;;;;;;1.77;0.73;;;;;;;;;;5036757;28;20110;-39
2021/04/10 04:34:11;;;;;;;0.50;0.50;;;;;;;;;;5054339;28;20577;-36
2021/04/10 04:36:40;;;;;;;0.73;0.52;;;;;;;;;;5053787;28;20490;-36
2021/04/10 04:39:06;;;;;;;0.60;0.40;;;;;;;;;;5056619;28;20053;-38
2021/04/10 04:41:32;;;;;;;0.70;0.40;;;;;;;;;;5074386;28;20056;-37
2021/04/10 04:43:59;;;;;;;1.50;0.90;;;;;;;;;;5074198;28;20056;-38
2021/04/10 04:46:25;;;;;;;1.30;0.82;;;;;;;;;;5073545;28;20518;-35
2021/04/10 04:48:51;;;;;;;1.10;0.50;;;;;;;;;;5073918;28;20109;-39
2021/04/10 04:51:18;;;;;;;0.50;0.50;;;;;;;;;;5074131;28;20094;-36
2021/04/10 04:53:44;;;;;;;0.85;0.50;;;;;;;;;;5067749;28;20053;-36
2021/04/10 04:56:10;;;;;;;0.50;0.50;;;;;;;;;;5053167;28;20102;-38
2021/04/10 04:58:36;;;;;;;0.95;0.77;;;;;;;;;;5066369;28;20052;-39
2021/04/10 05:01:02;;;;;;;1.25;0.60;;;;;;;;;;5073821;28;20106;-37
2021/04/10 05:03:28;;;;;;;0.60;0.60;;;;;;;;;;5069240;28;20392;-40
2021/04/10 05:05:55;;;;;;;0.30;0.30;;;;;;;;;;5061775;28;20503;-39
2021/04/10 05:08:21;;;;;;;0.80;0.70;;;;;;;;;;5062403;28;20041;-37
2021/04/10 05:10:47;;;;;;;0.80;0.65;;;;;;;;;;5065978;28;20495;-37
2021/04/10 05:13:13;;;;;;;0.50;0.50;;;;;;;;;;5064222;28;20469;-38
2021/04/10 05:15:39;;;;;;;0.55;0.55;;;;;;;;;;5062014;28;20072;-35
2021/04/10 05:18:05;;;;;;;0.90;0.70;;;;;;;;;;5060181;28;20053;-37
2021/04/10 05:20:31;;;;;;;0.68;0.40;;;;;;;;;;5053675;28;20095;-39
2021/04/10 05:22:57;;;;;;;0.88;0.60;;;;;;;;;;5053308;28;20045;-36
2021/04/10 05:25:23;;;;;;;0.80;0.40;;;;;;;;;;5052678;28;20091;-36
2021/04/10 05:27:51;;;;;;;0.50;0.50;;;;;;;;;;5053229;28;20059;-37
2021/04/10 05:30:18;;;;;;;0.90;0.65;;;;;;;;;;5053704;28;20455;-39
2021/04/10 05:32:44;;;;;;;0.50;0.50;;;;;;;;;;5053299;28;20049;-39
2021/04/10 05:35:10;;;;;;;0.45;0.45;;;;;;;;;;5052988;28;20135;-40
2021/04/10 05:37:37;;;;;;;0.45;0.40;;;;;;;;;;5052918;28;20084;-39
2021/04/10 05:40:04;;;;;;;0.50;0.50;;;;;;;;;;5057679;28;20079;-36
2021/04/10 05:42:30;;;;;;;1.25;0.60;;;;;;;;;;5070260;28;20048;-37
2021/04/10 05:44:57;;;;;;;0.55;0.40;;;;;;;;;;5072970;28;20071;-37
2021/04/10 05:47:23;;;;;;;0.82;0.50;;;;;;;;;;5072261;28;20485;-37
2021/04/10 05:49:50;;;;;;;0.70;0.60;;;;;;;;;;5072878;28;20053;-40
2021/04/10 05:52:16;;;;;;;0.98;0.60;;;;;;;;;;5072875;28;20052;-37
2021/04/10 05:54:42;;;;;;;1.00;0.60;;;;;;;;;;5073038;28;20052;-36
2021/04/10 05:57:08;;;;;;;0.85;0.60;;;;;;;;;;5072030;28;20049;-36
2021/04/10 05:59:34;;;;;;;0.50;0.50;;;;;;;;;;5068739;28;20110;-39
2021/04/10 06:02:05;;;;;;;0.57;0.50;;;;;;;;;;5072399;28;20134;-37
2021/04/10 06:04:33;;;;;;;1.20;0.60;;;;;;;;;;5072676;28;20503;-38
2021/04/10 06:07:00;;;;;;;0.77;0.43;;;;;;;;;;5053984;28;20072;-37
2021/04/10 06:09:26;;;;;;;2.80;0.50;;;;;;;;;;5071803;28;20481;-39
2021/04/10 06:11:52;;;;;;;1.58;0.80;;;;;;;;;;5072246;28;20458;-39
2021/04/10 06:15:53;;;;;;;1.10;0.95;;;;;;;;;;5007986;28;20384;-37
2021/04/10 06:18:19;;;;;;;1.23;0.50;;;;;;;;;;5003921;28;20562;-36
2021/04/10 06:20:46;;;;;;;5.45;0.60;;;;;;;;;;5004084;28;20108;-37
2021/04/10 06:23:12;;;;;;;1.45;0.70;;;;;;;;;;5003716;28;20489;-39
2021/04/10 06:25:38;;;;;;;2.53;0.70;;;;;;;;;;5000524;28;20122;-36
2021/04/10 06:28:04;;;;;;;1.35;0.68;;;;;;;;;;4998414;28;20056;-39
2021/04/10 06:30:31;;;;;;;2.63;0.60;;;;;;;;;;5002201;28;20103;-39
2021/04/10 06:32:57;;;;;;;1.65;0.60;;;;;;;;;;5001905;28;20058;-38
2021/04/10 06:35:23;;;;;;;2.22;0.60;;;;;;;;;;5000684;28;20050;-38
2021/04/10 06:37:49;;;;;;;5.43;0.60;;;;;;;;;;5001043;28;20083;-38
2021/04/10 06:40:15;;;;;;;5.60;0.70;;;;;;;;;;5002268;28;20503;-39
2021/04/10 06:42:42;;;;;;;4.20;0.75;;;;;;;;;;5000684;28;20109;-38
2021/04/10 06:45:09;;;;;;;1.25;0.90;;;;;;;;;;5001823;28;20054;-36
2021/04/10 06:47:35;;;;;;;2.53;0.75;;;;;;;;;;5001269;28;20170;-37
2021/04/10 06:50:05;;;;;;;5.18;0.73;;;;;;;;;;4999171;28;20073;-37
2021/04/10 06:52:31;;;;;;;1.00;0.68;;;;;;;;;;5001550;28;20087;-37
2021/04/10 06:55:02;;;;;;;4.07;0.73;;;;;;;;;;4985195;28;20582;-39
2021/04/10 06:57:32;;;;;;;3.85;0.60;;;;;;;;;;4999940;28;20074;-38
2021/04/10 07:00:00;;;;;;;0.80;0.68;;;;;;;;;;4981022;28;20083;-38
2021/04/10 07:02:27;;;;;;;1.33;0.40;;;;;;;;;;5000355;28;20078;-38
2021/04/10 07:04:56;;;;;;;2.05;0.60;;;;;;;;;;5001058;28;20050;-40
2021/04/10 07:07:26;;;;;;;1.35;0.68;;;;;;;;;;5000790;28;20140;-37
2021/04/10 07:09:53;;;;;;;2.67;0.90;;;;;;;;;;5001061;28;20124;-36
2021/04/10 07:12:19;;;;;;;1.77;0.90;;;;;;;;;;5001766;28;20108;-38
2021/04/10 07:14:45;;;;;;;3.13;1.30;;;;;;;;;;5000810;28;20129;-40
2021/04/10 07:17:13;;;;;;;1.23;0.75;;;;;;;;;;5000544;28;20089;-39
2021/04/10 07:19:39;;;;;;;2.72;0.63;;;;;;;;;;5000990;28;20050;-39
2021/04/10 07:22:12;;;;;;;0.93;0.60;;;;;;;;;;5001687;28;20092;-38
2021/04/10 07:24:46;;;;;;;3.53;0.70;;;;;;;;;;4998518;28;20074;-39
2021/04/10 07:27:14;;;;;;;3.03;0.80;;;;;;;;;;4987834;28;20107;-37
2021/04/10 07:29:45;;;;;;;2.05;0.88;;;;;;;;;;4985899;28;20078;-37
2021/04/10 07:32:35;;;;;;;2.45;1.20;;;;;;;;;;4988157;28;20086;-38
2021/04/10 07:35:06;;;;;;;4.45;1.00;;;;;;;;;;4986098;28;20493;-37
2021/04/10 07:37:48;;;;;;;3.45;0.60;;;;;;;;;;4987915;28;20584;-38
2021/04/10 07:40:25;;;;;;;6.03;0.98;;;;;;;;;;4978187;28;20050;-38
2021/04/10 07:42:51;;;;;;;5.57;1.30;;;;;;;;;;4985853;28;20459;-39
2021/04/10 07:45:32;;;;;;;10.15;1.60;;;;;;;;;;4982061;28;20077;-38
2021/04/10 07:48:14;;;;;;;8.40;1.90;;;;;;;;;;4983774;28;20159;-39
2021/04/10 07:50:40;;;;;;;6.43;1.40;;;;;;;;;;4986843;28;20050;-40
2021/04/10 07:53:24;;;;;;;7.40;2.10;;;;;;;;;;4989800;28;20070;-38
2021/04/10 07:55:51;;;;;;;7.68;1.25;;;;;;;;;;4985227;28;20559;-38
2021/04/10 07:58:34;;;;;;;6.93;1.08;;;;;;;;;;4989499;28;20123;-39
2021/04/10 08:01:02;;;;;;;1.77;0.90;;;;;;;;;;4986651;28;20097;-38
2021/04/10 08:03:40;;;;;;;1.48;0.77;;;;;;;;;;4989771;28;20492;-37
2021/04/10 08:06:08;;;;;;;4.60;0.90;;;;;;;;;;4977925;28;20583;-37
2021/04/10 08:08:47;;;;;;;6.85;1.80;;;;;;;;;;4988771;28;20190;-37
2021/04/10 08:11:14;;;;;;;2.25;0.65;;;;;;;;;;4987658;28;20046;-38
2021/04/10 08:13:56;;;;;;;2.55;0.90;;;;;;;;;;4987508;28;20074;-36
2021/04/10 08:16:24;;;;;;;4.10;0.90;;;;;;;;;;4982068;28;20070;-39
2021/04/10 08:18:50;;;;;;;7.80;1.67;;;;;;;;;;4986303;28;20046;-38
2021/04/10 08:21:18;;;;;;;3.97;1.30;;;;;;;;;;4986971;28;20658;-39
2021/04/10 08:23:45;;;;;;;3.10;1.00;;;;;;;;;;4995520;28;20424;-38
2021/04/10 08:26:12;;;;;;;3.53;1.65;;;;;;;;;;4995508;28;20057;-41
2021/04/10 08:28:38;;;;;;;6.07;1.73;;;;;;;;;;4971715;28;20506;-38
2021/04/10 08:31:05;;;;;;;3.65;1.50;;;;;;;;;;4988686;28;20066;-40
2021/04/10 08:33:32;;;;;;;6.38;1.25;;;;;;;;;;4987235;28;20047;-40
2021/04/10 08:35:59;;;;;;;6.28;1.30;;;;;;;;;;4987628;28;20077;-40
2021/04/10 08:38:28;;;;;;;15.02;1.50;;;;;;;;;;4988015;28;20081;-39
2021/04/10 08:40:57;;;;;;;16.45;1.77;;;;;;;;;;4986683;28;20053;-40
2021/04/10 08:43:26;;;;;;;9.68;1.75;;;;;;;;;;4986352;28;20164;-39
2021/04/10 08:45:54;;;;;;;12.85;3.10;;;;;;;;;;4986606;28;20051;-39
2021/04/10 08:48:26;;;;;;;17.30;1.98;;;;;;;;;;5032526;22;20044;-43
2021/04/10 08:50:54;;;;;;;11.00;1.40;;;;;;;;;;5068947;28;20048;-43
2021/04/10 08:53:28;;;;;;;12.43;1.33;;;;;;;;;;5070924;28;20052;-43
2021/04/10 08:55:55;;;;;;;5.88;1.60;;;;;;;;;;5067860;28;20106;-43
2021/04/10 08:58:31;;;;;;;10.60;1.20;;;;;;;;;;5069713;28;20052;-43
2021/04/10 09:01:05;;;;;;;8.65;1.88;;;;;;;;;;5068266;28;20072;-43
2021/04/10 09:03:46;;;;;;;6.50;1.00;;;;;;;;;;5069607;28;20049;-42
2021/04/10 09:06:13;;;;;;;12.10;1.80;;;;;;;;;;5070043;28;20052;-43
2021/04/10 09:08:39;;;;;;;13.80;1.40;;;;;;;;;;5071007;28;20457;-43
2021/04/10 09:11:08;;;;;;;9.57;1.52;;;;;;;;;;5069227;28;20464;-42
2021/04/10 09:13:58;;;;;;;7.60;1.42;;;;;;;;;;5066684;28;20052;-43
2021/04/10 09:16:27;;;;;;;6.35;1.55;;;;;;;;;;5067200;28;20094;-46
2021/04/10 09:19:02;;;;;;;16.10;2.08;;;;;;;;;;5068182;28;20106;-44
2021/04/10 09:21:52;;;;;;;4.05;1.48;;;;;;;;;;5069954;28;20055;-46
2021/04/10 09:24:40;;;;;;;18.63;2.72;;;;;;;;;;5060864;28;20048;-45
2021/04/10 09:27:19;;;;;;;4.13;1.10;;;;;;;;;;5067029;28;20056;-47
2021/04/10 09:29:46;;;;;;;3.85;1.20;;;;;;;;;;5069619;28;20051;-45
2021/04/10 09:32:14;;;;;;;4.90;1.67;;;;;;;;;;5070476;28;20410;-45
2021/04/10 09:34:43;;;;;;;1.65;0.85;;;;;;;;;;5070279;28;20048;-43
2021/04/10 09:37:12;;;;;;;3.38;1.20;;;;;;;;;;5069766;28;20513;-44
2021/04/10 09:40:00;;;;;;;9.32;1.17;;;;;;;;;;5069125;28;20045;-43
2021/04/10 09:42:35;;;;;;;4.95;1.27;;;;;;;;;;5066237;28;20094;-44
2021/04/10 09:45:18;;;;;;;6.03;1.50;;;;;;;;;;5070266;28;20149;-43
2021/04/10 09:50:31;;;;;;;2.47;1.02;;;;;;;;;;5070125;28;20419;-43
2021/04/10 09:53:17;;;;;;;4.53;1.00;;;;;;;;;;5039507;28;20507;-40
2021/04/10 09:55:44;;;;;;;4.22;1.25;;;;;;;;;;5048490;28;20084;-42
2021/04/10 09:58:18;;;;;;;2.05;1.00;;;;;;;;;;5049589;28;20056;-40
2021/04/10 10:00:51;;;;;;;3.63;0.93;;;;;;;;;;5050112;28;20106;-42
2021/04/10 10:03:20;;;;;;;8.13;1.95;;;;;;;;;;5049344;28;20110;-43
2021/04/10 10:06:30;;;;;;;5.85;1.10;;;;;;;;;;5048745;28;20048;-40
2021/04/10 10:08:56;;;;;;;2.25;0.82;;;;;;;;;;5048813;28;20098;-40
2021/04/10 10:11:23;;;;;;;2.75;0.75;;;;;;;;;;5049840;28;20091;-41
2021/04/10 10:13:49;;;;;;;2.33;0.85;;;;;;;;;;5048682;28;20049;-42
2021/04/10 10:16:24;;;;;;;1.75;1.13;;;;;;;;;;5049220;28;20052;-40
2021/04/10 10:18:50;;;;;;;2.58;1.10;;;;;;;;;;5049619;28;20049;-41
2021/04/10 10:21:20;;;;;;;3.42;0.90;;;;;;;;;;5049705;28;20103;-41
2021/04/10 10:23:51;;;;;;;4.25;1.20;;;;;;;;;;5047930;28;20072;-42
2021/04/10 10:26:36;;;;;;;3.42;0.93;;;;;;;;;;5049148;28;20080;-40
2021/04/10 10:29:05;;;;;;;3.88;1.20;;;;;;;;;;5048916;28;20110;-41
2021/04/10 10:31:39;;;;;;;3.45;0.85;;;;;;;;;;5048122;28;20094;-42
2021/04/10 10:34:07;;;;;;;3.45;1.00;;;;;;;;;;5047854;28;20484;-41
2021/04/10 10:36:35;;;;;;;3.88;1.20;;;;;;;;;;5048918;28;20045;-42
2021/04/10 10:39:02;;;;;;;3.28;0.90;;;;;;;;;;5049059;28;20053;-41
2021/04/10 10:41:28;;;;;;;5.20;0.90;;;;;;;;;;5049388;28;20099;-41
2021/04/10 10:44:01;;;;;;;1.45;0.80;;;;;;;;;;5049471;28;20095;-42
2021/04/10 10:46:27;;;;;;;3.13;1.08;;;;;;;;;;5048839;28;20099;-41
2021/04/10 10:48:53;;;;;;;2.75;0.90;;;;;;;;;;5047045;28;20527;-39
2021/04/10 10:51:21;;;;;;;4.85;0.90;;;;;;;;;;5049535;28;20059;-41
2021/04/10 10:53:51;;;;;;;1.88;0.80;;;;;;;;;;5049304;28;20083;-41
2021/04/10 10:56:31;;;;;;;3.00;0.98;;;;;;;;;;5044672;28;20045;-40
2021/04/10 10:59:08;;;;;;;8.82;1.20;;;;;;;;;;5045739;28;20066;-41
2021/04/10 11:01:36;;;;;;;3.22;0.88;;;;;;;;;;5050461;28;20044;-41
2021/04/10 11:04:06;;;;;;;5.00;1.00;;;;;;;;;;5052319;28;20418;-41
2021/04/10 11:06:41;;;;;;;2.83;0.68;;;;;;;;;;5051491;28;20048;-41
2021/04/10 11:09:09;;;;;;;2.08;0.90;;;;;;;;;;5066014;28;20422;-41
2021/04/10 11:11:40;;;;;;;5.28;1.52;;;;;;;;;;5047937;28;20041;-40
2021/04/10 11:14:07;;;;;;;3.13;0.80;;;;;;;;;;5031555;28;20553;-40
2021/04/10 11:16:41;;;;;;;3.05;1.00;;;;;;;;;;5048710;28;20503;-40
2021/04/10 11:19:07;;;;;;;9.43;1.23;;;;;;;;;;5052007;28;20128;-40
2021/04/10 11:21:33;;;;;;;7.00;1.00;;;;;;;;;;5052706;28;20045;-40
2021/04/10 11:24:04;;;;;;;5.40;1.02;;;;;;;;;;5052418;28;20048;-40
2021/04/10 11:26:36;;;;;;;5.78;1.30;;;;;;;;;;5051378;28;20123;-40
2021/04/10 11:29:16;;;;;;;5.50;1.00;;;;;;;;;;5052029;28;20052;-40
2021/04/10 11:32:03;;;;;;;5.00;1.17;;;;;;;;;;5052407;28;20040;-40
2021/04/10 11:34:33;;;;;;;7.25;1.17;;;;;;;;;;5026336;28;20044;-40
2021/04/10 11:37:00;;;;;;;4.47;1.13;;;;;;;;;;5051807;28;20049;-40
2021/04/10 11:39:26;;;;;;;4.65;0.98;;;;;;;;;;5049304;28;20064;-40
2021/04/10 11:41:52;;;;;;;4.55;0.85;;;;;;;;;;5051848;28;20053;-40
2021/04/10 11:44:19;;;;;;;2.83;0.90;;;;;;;;;;5052425;28;20544;-40
2021/04/10 11:46:46;;;;;;;3.55;0.80;;;;;;;;;;5051959;28;20085;-40
2021/04/10 11:49:25;;;;;;;6.45;1.13;;;;;;;;;;5050695;28;20370;-40
2021/04/10 11:51:51;;;;;;;10.38;1.45;;;;;;;;;;5050582;28;20506;-40
2021/04/10 11:54:33;;;;;;;5.10;0.95;;;;;;;;;;5051276;28;20076;-40
2021/04/10 11:57:00;;;;;;;4.25;1.35;;;;;;;;;;5051281;28;20091;-40
2021/04/10 11:59:34;;;;;;;4.15;1.20;;;;;;;;;;5049843;28;20126;-40
2021/04/10 12:02:02;;;;;;;8.00;1.00;;;;;;;;;;5054261;28;20083;-40
2021/04/10 12:04:37;;;;;;;3.47;0.98;;;;;;;;;;5059743;28;20168;-40
2021/04/10 12:07:08;;;;;;;4.28;0.80;;;;;;;;;;5047883;28;20364;-43
2021/04/10 12:09:36;;;;;;;4.65;1.02;;;;;;;;;;5050041;28;20388;-41
2021/04/10 12:12:03;;;;;;;2.53;0.70;;;;;;;;;;5051371;28;20099;-42
2021/04/10 12:14:29;;;;;;;4.22;0.77;;;;;;;;;;5050833;28;20581;-43
2021/04/10 12:16:55;;;;;;;7.78;1.15;;;;;;;;;;5050426;28;20141;-43
2021/04/10 12:19:22;;;;;;;2.80;0.70;;;;;;;;;;5051256;28;20056;-43
2021/04/10 12:21:49;;;;;;;3.55;0.82;;;;;;;;;;5047706;28;20087;-41
2021/04/10 12:24:15;;;;;;;1.02;0.68;;;;;;;;;;5051518;28;20457;-41
2021/04/10 12:26:41;;;;;;;2.00;1.02;;;;;;;;;;5050601;28;20080;-41
2021/04/10 12:29:07;;;;;;;2.40;0.50;;;;;;;;;;5050621;28;20049;-43
2021/04/10 12:31:33;;;;;;;7.65;0.77;;;;;;;;;;5051659;28;20103;-42
2021/04/10 12:33:59;;;;;;;6.13;0.75;;;;;;;;;;5048844;28;20048;-41
2021/04/10 12:36:28;;;;;;;2.90;0.90;;;;;;;;;;5047977;28;20045;-44
2021/04/10 12:38:54;;;;;;;0.98;0.70;;;;;;;;;;5050167;28;20110;-44
2021/04/10 12:41:20;;;;;;;3.17;1.10;;;;;;;;;;5047061;28;20056;-43
2021/04/10 12:43:46;;;;;;;2.78;0.70;;;;;;;;;;5050577;28;20499;-42
2021/04/10 12:46:13;;;;;;;1.27;0.60;;;;;;;;;;5049901;28;20049;-41
2021/04/10 12:48:40;;;;;;;3.30;1.63;;;;;;;;;;5048905;28;20053;-41
2021/04/10 12:51:06;;;;;;;2.72;0.80;;;;;;;;;;5046777;28;20057;-41
2021/04/10 12:53:32;;;;;;;8.60;1.00;;;;;;;;;;5051390;28;20492;-42
2021/04/10 12:55:58;;;;;;;2.00;0.80;;;;;;;;;;5049938;28;20076;-41
2021/04/10 12:58:24;;;;;;;0.82;0.60;;;;;;;;;;5050892;28;20056;-42
2021/04/10 13:00:51;;;;;;;1.52;0.68;;;;;;;;;;5049766;28;20119;-42
2021/04/10 13:03:17;;;;;;;3.13;0.95;;;;;;;;;;5051152;28;20073;-42
2021/04/10 13:05:43;;;;;;;1.55;0.70;;;;;;;;;;5049479;28;20081;-41
2021/04/10 13:08:09;;;;;;;1.73;0.60;;;;;;;;;;5048853;28;20076;-41
2021/04/10 13:10:36;;;;;;;1.15;0.50;;;;;;;;;;5050321;28;20470;-41
2021/04/10 13:13:05;;;;;;;0.90;0.73;;;;;;;;;;5050211;28;20049;-41
2021/04/10 13:15:31;;;;;;;3.90;0.90;;;;;;;;;;5046995;28;20569;-42
2021/04/10 13:17:57;;;;;;;1.27;0.60;;;;;;;;;;5049776;28;20055;-42
2021/04/10 13:20:23;;;;;;;0.70;0.60;;;;;;;;;;5050336;28;20507;-41
2021/04/10 13:22:49;;;;;;;0.85;0.60;;;;;;;;;;5047428;28;20303;-42
2021/04/10 13:25:16;;;;;;;0.90;0.60;;;;;;;;;;5048475;28;20049;-42
2021/04/10 13:27:44;;;;;;;3.17;1.20;;;;;;;;;;5050323;28;20132;-41
2021/04/10 13:30:11;;;;;;;0.85;0.50;;;;;;;;;;5050005;28;20508;-41
2021/04/10 13:32:37;;;;;;;0.70;0.60;;;;;;;;;;5046312;28;20408;-43
2021/04/10 13:35:05;;;;;;;2.97;0.60;;;;;;;;;;5049571;28;20045;-44
2021/04/10 13:37:31;;;;;;;3.38;0.60;;;;;;;;;;5049478;28;20080;-44
2021/04/10 13:39:57;;;;;;;2.92;0.63;;;;;;;;;;5050438;28;20080;-44
2021/04/10 13:42:23;;;;;;;1.08;0.63;;;;;;;;;;5049851;28;20053;-44
2021/04/10 13:44:49;;;;;;;1.52;0.75;;;;;;;;;;5049716;28;20099;-44
2021/04/10 13:47:15;;;;;;;1.25;0.60;;;;;;;;;;5047694;28;20087;-44
2021/04/10 13:49:41;;;;;;;0.98;0.50;;;;;;;;;;5049682;28;20041;-44
2021/04/10 13:52:07;;;;;;;1.70;0.50;;;;;;;;;;5049678;28;20111;-43
2021/04/10 13:54:33;;;;;;;2.50;0.70;;;;;;;;;;5047651;28;20091;-43
2021/04/10 13:57:19;;;;;;;1.55;0.70;;;;;;;;;;5049697;28;20048;-44
2021/04/10 13:59:45;;;;;;;1.13;0.80;;;;;;;;;;5049701;28;20048;-44
2021/04/10 14:02:13;;;;;;;1.70;0.70;;;;;;;;;;5046894;28;20103;-44
2021/04/10 14:04:58;;;;;;;1.67;0.73;;;;;;;;;;5048925;28;20558;-44
2021/04/10 14:07:34;;;;;;;1.42;1.00;;;;;;;;;;5045283;28;20045;-44
2021/04/10 14:10:02;;;;;;;0.85;0.60;;;;;;;;;;5049662;28;20446;-44
2021/04/10 14:12:29;;;;;;;0.65;0.50;;;;;;;;;;5049296;28;20503;-44
2021/04/10 14:14:55;;;;;;;0.98;0.60;;;;;;;;;;5049100;28;20525;-44
2021/04/10 14:17:21;;;;;;;0.40;0.40;;;;;;;;;;5048492;28;20095;-44
2021/04/10 14:19:52;;;;;;;1.35;0.70;;;;;;;;;;5049629;28;20319;-44
2021/04/10 14:22:18;;;;;;;0.93;0.40;;;;;;;;;;5049316;28;20072;-44
2021/04/10 14:24:44;;;;;;;2.90;0.57;;;;;;;;;;5049148;28;20049;-44
2021/04/10 14:27:11;;;;;;;1.00;0.40;;;;;;;;;;5049056;28;20135;-44
2021/04/10 14:29:41;;;;;;;1.00;0.80;;;;;;;;;;5048314;28;20045;-44
2021/04/10 14:32:09;;;;;;;1.85;0.60;;;;;;;;;;5048030;28;20045;-44
2021/04/10 14:34:35;;;;;;;1.80;0.50;;;;;;;;;;5049109;28;20049;-44
2021/04/10 14:37:03;;;;;;;1.65;0.45;;;;;;;;;;5051365;28;20131;-44
2021/04/10 14:39:29;;;;;;;0.52;0.43;;;;;;;;;;5052909;28;20095;-44
2021/04/10 14:41:55;;;;;;;1.55;0.68;;;;;;;;;;5053168;28;20084;-44
2021/04/10 14:44:21;;;;;;;0.65;0.60;;;;;;;;;;5049717;28;20061;-44
2021/04/10 14:46:48;;;;;;;1.02;0.60;;;;;;;;;;5044399;28;20044;-44
2021/04/10 14:49:14;;;;;;;1.77;0.60;;;;;;;;;;5050638;28;20053;-44
2021/04/10 14:51:40;;;;;;;1.33;0.40;;;;;;;;;;5051061;28;20572;-44
2021/04/10 14:54:06;;;;;;;0.60;0.45;;;;;;;;;;5050623;28;20111;-44
2021/04/10 14:56:33;;;;;;;0.70;0.50;;;;;;;;;;5049634;28;20561;-42
2021/04/10 14:58:59;;;;;;;2.55;0.60;;;;;;;;;;5050635;28;20068;-42